Time;durP1;ratioP1;P1;durP2;ratioP2;P2;SDS_P1;SDS_P2;PMS_P1;PMS_P2;Temp;Humidity;BMP_temperature;BMP_pressure;BME280_temperature;BME280_humidity;BME280_pressure;Samples;Min_cycle;Max_cycle;Signal;HPM_P1;HPM_P2
2024/03/05 00:00:11;;;;;;;;;;;;;;;-144.99;94.60;52454.22;5033613;28;20335;-71
2024/03/05 00:02:39;;;;;;;;;;;;;;;-144.99;94.09;52503.13;5028893;28;20291;-71
2024/03/05 00:05:06;;;;;;;;;;;;;;;-144.99;93.78;52497.00;5027811;28;20035;-70
2024/03/05 00:07:35;;;;;;;;;;;;;;;-144.99;94.27;52439.94;5029600;28;19929;-71
2024/03/05 00:10:02;;;;;;;;;;;;;;;-144.99;93.73;52529.63;5033592;28;20470;-68
2024/03/05 00:12:28;;;;;;;;;;;;;;;-144.99;93.96;52501.09;5038113;28;19983;-70
2024/03/05 00:14:55;;;;;;;;;;;;;;;-144.99;93.91;52509.25;5031874;28;19929;-71
2024/03/05 00:17:23;;;;;;;;;;;;;;;-144.99;94.20;52492.94;5037885;28;19925;-68
2024/03/05 00:19:50;;;;;;;;;;;;;;;-144.99;94.83;52480.72;5041346;28;19932;-69
2024/03/05 00:22:16;;;;;;;;;;;;;;;-144.99;94.44;52476.63;5045684;28;20337;-68
2024/03/05 00:24:44;;;;;;;;;;;;;;;-144.99;94.21;52547.97;5031483;28;19979;-69
2024/03/05 00:27:11;;;;;;;;;;;;;;;-144.99;94.93;52472.56;5033321;28;19995;-70
2024/03/05 00:29:37;;;;;;;;;;;;;;;-144.99;94.67;52464.41;5038188;28;20339;-71
2024/03/05 00:32:05;;;;;;;;;;;;;;;-144.99;95.13;52497.00;5032720;28;20452;-71
2024/03/05 00:34:31;;;;;;;;;;;;;;;-144.99;94.66;52464.41;5034654;28;19933;-72
2024/03/05 00:36:57;;;;;;;;;;;;;;;-144.99;94.66;52550.00;5029291;28;19929;-70
2024/03/05 00:39:24;;;;;;;;;;;;;;;-144.99;94.64;52480.72;5031107;28;20016;-71
2024/03/05 00:41:52;;;;;;;;;;;;;;;-144.99;94.91;52513.31;5029801;28;19925;-72
2024/03/05 00:44:18;;;;;;;;;;;;;;;-144.99;95.35;52509.25;5031757;28;19998;-70
2024/03/05 00:46:45;;;;;;;;;;;;;;;-144.99;95.42;52482.75;5038051;28;19933;-71
2024/03/05 00:49:12;;;;;;;;;;;;;;;-144.99;95.44;52497.00;5034645;28;19983;-68
2024/03/05 00:51:38;;;;;;;;;;;;;;;-144.99;95.18;52517.41;5025712;28;19929;-67
2024/03/05 00:54:05;;;;;;;;;;;;;;;-144.99;95.00;52488.84;5023185;28;20019;-66
2024/03/05 00:56:31;;;;;;;;;;;;;;;-144.99;95.25;52513.31;5038096;28;20458;-66
2024/03/05 00:58:59;;;;;;;;;;;;;;;-144.99;95.31;52505.16;5024395;28;20405;-65
2024/03/05 01:01:25;;;;;;;;;;;;;;;-144.99;95.37;52513.31;5030775;28;19964;-66
2024/03/05 01:03:52;;;;;;;;;;;;;;;-144.99;95.19;52515.34;5036981;28;20006;-66
2024/03/05 01:06:18;;;;;;;;;;;;;;;-144.99;94.97;52492.94;5034885;28;20015;-66
2024/03/05 01:08:45;;;;;;;;;;;;;;;-144.99;95.08;52525.56;5033162;28;19969;-66
2024/03/05 01:11:13;;;;;;;;;;;;;;;-144.99;94.87;52472.56;5031188;28;19972;-66
2024/03/05 01:13:40;;;;;;;;;;;;;;;-144.99;94.83;52480.72;5031664;28;20000;-68
2024/03/05 01:16:09;;;;;;;;;;;;;;;-144.99;95.20;52460.31;5035048;28;19925;-69
2024/03/05 01:18:36;;;;;;;;;;;;;;;-144.99;95.11;52525.56;5043774;28;19925;-68
2024/03/05 01:21:03;;;;;;;;;;;;;;;-144.99;95.32;52527.59;5032684;28;19932;-68
2024/03/05 01:23:30;;;;;;;;;;;;;;;-144.99;95.32;52494.97;5029308;28;19929;-69
2024/03/05 01:25:58;;;;;;;;;;;;;;;-144.99;95.54;52513.31;5036153;28;20451;-68
2024/03/05 01:28:27;;;;;;;;;;;;;;;-144.99;95.96;52513.31;5041722;28;19929;-68
2024/03/05 01:30:54;;;;;;;;;;;;;;;-144.99;96.49;52513.31;5029082;28;20275;-69
2024/03/05 01:33:22;;;;;;;;;;;;;;;-144.99;96.16;52488.84;5029030;28;19971;-67
2024/03/05 01:35:51;;;;;;;;;;;;;;;-144.99;96.61;52480.72;5027507;28;19929;-68
2024/03/05 01:38:17;;;;;;;;;;;;;;;-144.99;96.10;52505.16;5031603;28;19925;-68
2024/03/05 01:40:44;;;;;;;;;;;;;;;-144.99;96.61;52501.09;5028521;28;20012;-68
2024/03/05 01:43:11;;;;;;;;;;;;;;;-144.99;97.00;52517.41;5031277;28;20016;-67
2024/03/05 01:45:38;;;;;;;;;;;;;;;-144.99;96.96;52501.09;5039663;28;19956;-68
2024/03/05 01:48:05;;;;;;;;;;;;;;;-144.99;96.88;52464.41;5029881;28;19979;-69
2024/03/05 01:50:35;;;;;;;;;;;;;;;-144.99;97.04;52492.94;5028130;28;20040;-69
2024/03/05 01:53:02;;;;;;;;;;;;;;;-144.99;96.99;52554.09;5026568;28;19936;-69
2024/03/05 01:55:29;;;;;;;;;;;;;;;-144.99;96.73;52466.44;5037335;28;20434;-68
2024/03/05 01:57:57;;;;;;;;;;;;;;;-144.99;96.71;52505.16;5030735;28;20218;-69
2024/03/05 02:00:23;;;;;;;;;;;;;;;-144.99;97.10;52482.75;5028138;28;19930;-69
2024/03/05 02:02:50;;;;;;;;;;;;;;;-144.99;97.17;52492.94;5029267;28;19925;-72
2024/03/05 02:05:16;;;;;;;;;;;;;;;-144.99;97.19;52439.94;5035395;28;20021;-72
2024/03/05 02:07:45;;;;;;;;;;;;;;;-144.99;97.41;52492.94;5034960;28;20148;-72
2024/03/05 02:10:12;;;;;;;;;;;;;;;-144.99;97.45;52505.16;5030295;28;20019;-73
2024/03/05 02:12:40;;;;;;;;;;;;;;;-144.99;97.42;52497.00;5045215;28;19964;-70
2024/03/05 02:15:11;;;;;;;;;;;;;;;-144.99;97.22;52494.97;5036317;28;20489;-71
2024/03/05 02:17:37;;;;;;;;;;;;;;;-144.99;97.04;52488.84;5037063;28;19929;-71
2024/03/05 02:20:06;;;;;;;;;;;;;;;-144.99;97.17;52505.16;5043937;28;19975;-70
2024/03/05 02:22:35;;;;;;;;;;;;;;;-144.99;96.84;52474.59;5014785;28;19936;-70
2024/03/05 02:25:03;;;;;;;;;;;;;;;-144.99;96.83;52503.13;5037180;28;19933;-69
2024/03/05 02:27:30;;;;;;;;;;;;;;;-144.99;96.59;52486.81;5026139;28;20350;-69
2024/03/05 02:29:56;;;;;;;;;;;;;;;-144.99;96.28;52509.25;5037553;28;19967;-69
2024/03/05 02:32:24;;;;;;;;;;;;;;;-144.99;96.57;52472.56;5031998;28;20019;-70
2024/03/05 02:34:54;;;;;;;;;;;;;;;-144.99;96.88;52517.41;5038551;28;19971;-72
2024/03/05 02:37:21;;;;;;;;;;;;;;;-144.99;97.02;52478.66;5025686;28;19964;-70
2024/03/05 02:39:48;;;;;;;;;;;;;;;-144.99;97.00;52484.78;5032978;28;19952;-70
2024/03/05 02:42:15;;;;;;;;;;;;;;;-144.99;96.71;52460.31;5040785;28;19933;-70
2024/03/05 02:44:41;;;;;;;;;;;;;;;-144.99;97.00;52456.25;5034388;28;20386;-69
2024/03/05 02:47:08;;;;;;;;;;;;;;;-144.99;97.11;52507.19;5052051;28;19924;-70
2024/03/05 02:49:36;;;;;;;;;;;;;;;-144.99;97.04;52501.09;5039795;28;20082;-71
2024/03/05 02:52:02;;;;;;;;;;;;;;;-144.99;97.38;52466.44;5034821;28;19980;-70
2024/03/05 02:54:29;;;;;;;;;;;;;;;-144.99;98.24;52521.47;5041163;28;20464;-69
2024/03/05 02:56:57;;;;;;;;;;;;;;;-144.99;98.14;52452.16;5035411;28;20374;-69
2024/03/05 02:59:23;;;;;;;;;;;;;;;-144.99;97.78;52488.84;5034006;28;19932;-69
2024/03/05 03:01:50;;;;;;;;;;;;;;;-144.99;97.77;52492.94;5036630;28;19925;-68
2024/03/05 03:04:16;;;;;;;;;;;;;;;-144.99;97.26;52503.13;5031689;28;19971;-70
2024/03/05 03:06:43;;;;;;;;;;;;;;;-144.99;97.88;52501.09;5031156;28;20370;-68
2024/03/05 03:09:10;;;;;;;;;;;;;;;-144.99;97.85;52460.31;5045794;28;19972;-67
2024/03/05 03:11:40;;;;;;;;;;;;;;;-144.99;97.52;52505.16;5032921;28;19925;-67
2024/03/05 03:14:09;;;;;;;;;;;;;;;-144.99;98.32;52460.31;5032408;28;19983;-72
2024/03/05 03:16:35;;;;;;;;;;;;;;;-144.99;97.93;52499.06;5031196;28;19936;-68
2024/03/05 03:19:02;;;;;;;;;;;;;;;-144.99;97.42;52464.41;5031948;28;19968;-68
2024/03/05 03:21:28;;;;;;;;;;;;;;;-144.99;97.48;52470.50;5033556;28;19979;-68
2024/03/05 03:23:55;;;;;;;;;;;;;;;-144.99;97.27;52488.84;5031622;28;20370;-70
2024/03/05 03:26:22;;;;;;;;;;;;;;;-144.99;97.11;52488.84;5041851;28;19940;-71
2024/03/05 03:28:48;;;;;;;;;;;;;;;-144.99;96.96;52517.41;5037134;28;19952;-71
2024/03/05 03:31:16;;;;;;;;;;;;;;;-144.99;96.87;52501.09;5037357;28;20056;-71
2024/03/05 03:33:42;;;;;;;;;;;;;;;-144.99;96.63;52484.78;5035002;28;20305;-71
2024/03/05 03:36:09;;;;;;;;;;;;;;;-144.99;96.76;52541.84;5041947;28;19925;-72
2024/03/05 03:38:35;;;;;;;;;;;;;;;-144.99;96.97;52513.31;5046852;28;19979;-66
2024/03/05 03:41:05;;;;;;;;;;;;;;;-144.99;96.77;52497.00;5034958;28;19971;-66
2024/03/05 03:43:31;;;;;;;;;;;;;;;-144.99;96.91;52480.72;5039831;28;19933;-69
2024/03/05 03:45:58;;;;;;;;;;;;;;;-144.99;97.27;52521.47;5033770;28;20002;-69
2024/03/05 03:48:26;;;;;;;;;;;;;;;-144.99;96.91;52439.94;5031212;28;20449;-69
2024/03/05 03:50:52;;;;;;;;;;;;;;;-144.99;96.66;52505.16;5038674;28;19960;-75
2024/03/05 03:53:19;;;;;;;;;;;;;;;-144.99;96.56;52505.16;5031357;28;19932;-75
2024/03/05 03:55:45;;;;;;;;;;;;;;;-144.99;96.98;52497.00;5036079;28;20016;-74
2024/03/05 03:58:13;;;;;;;;;;;;;;;-144.99;97.66;52505.16;5037740;28;20008;-73
2024/03/05 04:00:39;;;;;;;;;;;;;;;-144.99;97.22;52490.91;5037797;28;19924;-74
2024/03/05 04:03:06;;;;;;;;;;;;;;;-144.99;97.16;52497.00;5033582;28;19952;-74
2024/03/05 04:05:34;;;;;;;;;;;;;;;-144.99;97.45;52490.91;5057164;28;19948;-75
2024/03/05 04:08:01;;;;;;;;;;;;;;;-144.99;97.05;52460.31;5048261;28;20383;-69
2024/03/05 04:10:28;;;;;;;;;;;;;;;-144.99;96.58;52488.84;5037614;28;20040;-71
2024/03/05 04:12:55;;;;;;;;;;;;;;;-144.99;96.68;52513.31;5039228;28;20333;-71
2024/03/05 04:15:22;;;;;;;;;;;;;;;-144.99;97.18;52529.63;5038629;28;20311;-71
2024/03/05 04:17:49;;;;;;;;;;;;;;;-144.99;96.98;52507.19;5035203;28;19924;-73
2024/03/05 04:20:16;;;;;;;;;;;;;;;-144.99;97.02;52541.84;5032259;28;19998;-70
2024/03/05 04:22:44;;;;;;;;;;;;;;;-144.99;97.06;52507.19;5036430;28;20347;-69
2024/03/05 04:25:13;;;;;;;;;;;;;;;-144.99;97.20;52476.63;5031512;28;19969;-70
2024/03/05 04:27:45;;;;;;;;;;;;;;;-144.99;97.51;52476.63;5033221;28;19925;-69
2024/03/05 04:30:13;;;;;;;;;;;;;;;-144.99;97.33;52513.31;5035750;28;19929;-71
2024/03/05 04:32:46;;;;;;;;;;;;;;;-144.99;96.94;52460.31;5025861;28;19926;-70
2024/03/05 04:35:12;;;;;;;;;;;;;;;-144.99;96.80;52533.69;5031611;28;19929;-71
2024/03/05 04:37:40;;;;;;;;;;;;;;;-144.99;97.18;52468.47;5030561;28;19965;-80
2024/03/05 04:40:10;;;;;;;;;;;;;;;-144.99;97.17;52452.16;5037348;28;19933;-77
2024/03/05 04:42:36;;;;;;;;;;;;;;;-144.99;97.02;52492.94;5028345;28;19943;-80
2024/03/05 04:45:03;;;;;;;;;;;;;;;-144.99;97.25;52509.25;5031943;28;19933;-79
2024/03/05 04:47:30;;;;;;;;;;;;;;;-144.99;97.31;52521.47;5039045;28;19932;-80
2024/03/05 04:49:57;;;;;;;;;;;;;;;-144.99;97.10;52521.47;5042544;28;19941;-80
2024/03/05 04:52:24;;;;;;;;;;;;;;;-144.99;97.16;52505.16;5036947;28;19929;-70
2024/03/05 04:54:50;;;;;;;;;;;;;;;-144.99;96.99;52492.94;5034215;28;19924;-73
2024/03/05 04:57:18;;;;;;;;;;;;;;;-144.99;97.32;52501.09;5038021;28;19939;-73
2024/03/05 04:59:45;;;;;;;;;;;;;;;-144.99;97.45;52521.47;5040157;28;19937;-72
2024/03/05 05:02:11;;;;;;;;;;;;;;;-144.99;98.04;52468.47;5035986;28;20022;-74
2024/03/05 05:04:38;;;;;;;;;;;;;;;-144.99;97.80;52484.78;5033423;28;19972;-75
2024/03/05 05:07:07;;;;;;;;;;;;;;;-144.99;98.07;52541.84;5050247;28;19924;-76
2024/03/05 05:09:36;;;;;;;;;;;;;;;-144.99;97.35;52476.63;5047360;28;20337;-73
2024/03/05 05:12:03;;;;;;;;;;;;;;;-144.99;97.80;52533.69;5031160;28;20459;-72
2024/03/05 05:14:31;;;;;;;;;;;;;;;-144.99;97.71;52460.31;5032532;28;20418;-73
2024/03/05 05:16:58;;;;;;;;;;;;;;;-144.99;97.73;52511.28;5034942;28;19929;-73
2024/03/05 05:19:25;;;;;;;;;;;;;;;-144.99;97.51;52513.31;5035050;28;19999;-73
2024/03/05 05:21:51;;;;;;;;;;;;;;;-144.99;97.68;52501.09;5033769;28;19929;-72
2024/03/05 05:24:18;;;;;;;;;;;;;;;-144.99;98.60;52486.81;5030610;28;19952;-72
2024/03/05 05:26:45;;;;;;;;;;;;;;;-144.99;97.76;52494.97;5039951;28;19929;-72
2024/03/05 05:29:12;;;;;;;;;;;;;;;-144.99;97.69;52499.06;5037372;28;19928;-72
2024/03/05 05:31:40;;;;;;;;;;;;;;;-144.99;98.49;52492.94;5035596;28;19925;-71
2024/03/05 05:34:06;;;;;;;;;;;;;;;-144.99;98.04;52499.06;5031458;28;20020;-72
2024/03/05 05:36:33;;;;;;;;;;;;;;;-144.99;97.69;52513.31;5035871;28;19968;-73
2024/03/05 05:38:59;;;;;;;;;;;;;;;-144.99;97.65;52497.00;5031449;28;20415;-67
2024/03/05 05:41:26;;;;;;;;;;;;;;;-144.99;97.34;52501.09;5045341;28;19939;-60
2024/03/05 05:43:52;;;;;;;;;;;;;;;-144.99;97.60;52448.09;5029302;28;19925;-72
2024/03/05 05:46:22;;;;;;;;;;;;;;;-144.99;98.07;52505.16;5030870;28;20445;-72
2024/03/05 05:48:50;;;;;;;;;;;;;;;-144.99;98.29;52525.56;5030391;28;19925;-73
2024/03/05 05:51:18;;;;;;;;;;;;;;;-144.99;97.78;52480.72;5028689;28;19933;-72
2024/03/05 05:53:44;;;;;;;;;;;;;;;-144.99;97.68;52472.56;5030262;28;19929;-74
2024/03/05 05:56:11;;;;;;;;;;;;;;;-144.99;97.58;52509.25;5029347;28;19925;-74
2024/03/05 05:58:38;;;;;;;;;;;;;;;-144.99;97.91;52492.94;5040649;28;19925;-72
2024/03/05 06:01:05;;;;;;;;;;;;;;;-144.99;98.02;52458.28;5035537;28;19932;-72
2024/03/05 06:03:33;;;;;;;;;;;;;;;-144.99;97.20;52468.47;5041227;28;20373;-68
2024/03/05 06:06:01;;;;;;;;;;;;;;;-144.99;97.50;52488.84;5016805;28;19932;-73
2024/03/05 06:08:28;;;;;;;;;;;;;;;-144.99;97.80;52533.69;5045315;28;19979;-72
2024/03/05 06:10:54;;;;;;;;;;;;;;;-144.99;97.63;52529.63;5037124;28;19973;-72
2024/03/05 06:13:24;;;;;;;;;;;;;;;-144.99;97.45;52490.91;5033937;28;20421;-72
2024/03/05 06:15:50;;;;;;;;;;;;;;;-144.99;98.18;52464.41;5032941;28;19929;-72
2024/03/05 06:18:17;;;;;;;;;;;;;;;-144.99;97.22;52501.09;5040085;28;20399;-72
2024/03/05 06:20:44;;;;;;;;;;;;;;;-144.99;97.88;52497.00;5033983;28;20391;-73
2024/03/05 06:23:12;;;;;;;;;;;;;;;-144.99;97.24;52492.94;5035042;28;19925;-72
2024/03/05 06:25:39;;;;;;;;;;;;;;;-144.99;97.22;52480.72;5032215;28;20008;-67
2024/03/05 06:28:08;;;;;;;;;;;;;;;-144.99;96.92;52529.63;5030363;28;19926;-68
2024/03/05 06:30:34;;;;;;;;;;;;;;;-144.99;96.82;52480.72;5029001;28;19964;-67
2024/03/05 06:33:01;;;;;;;;;;;;;;;-144.99;96.91;52517.41;5030021;28;19969;-67
2024/03/05 06:35:29;;;;;;;;;;;;;;;-144.99;96.79;52448.09;5036747;28;19935;-67
2024/03/05 06:37:57;;;;;;;;;;;;;;;-144.99;96.41;52501.09;5030087;28;19929;-68
2024/03/05 06:40:25;;;;;;;;;;;;;;;-144.99;96.37;52484.78;4334539;28;10000852;-71
2024/03/05 06:43:03;;;;;;;;;;;;;;;-144.99;96.25;52492.94;5036054;28;19932;-71
2024/03/05 06:45:30;;;;;;;;;;;;;;;-144.99;96.21;52476.63;5021451;28;19964;-70
2024/03/05 06:47:57;;;;;;;;;;;;;;;-144.99;96.32;52480.72;5030076;28;19937;-70
2024/03/05 06:50:33;;;;;;;;;;;;;;;-144.99;96.28;52439.94;5032512;28;19955;-71
2024/03/05 06:58:30;;;;;;;;;;;;;;;-144.99;96.53;52523.50;5035025;28;19940;-70
2024/03/05 07:00:56;;;;;;;;;;;;;;;-144.99;96.46;52484.78;5027972;28;19929;-69
2024/03/05 07:03:25;;;;;;;;;;;;;;;-144.99;96.29;52490.91;5029822;28;19936;-69
2024/03/05 07:05:51;;;;;;;;;;;;;;;-144.99;96.75;52537.78;5025497;28;20517;-69
2024/03/05 07:08:18;;;;;;;;;;;;;;;-144.99;96.38;52509.25;5033781;28;20015;-69
2024/03/05 07:10:46;;;;;;;;;;;;;;;-144.99;96.14;52492.94;5035420;28;19936;-69
2024/03/05 07:13:12;;;;;;;;;;;;;;;-144.99;96.52;52509.25;5034003;28;19929;-70
2024/03/05 07:15:39;;;;;;;;;;;;;;;-144.99;96.36;52488.84;5029202;28;20003;-69
2024/03/05 07:18:07;;;;;;;;;;;;;;;-144.99;96.37;52509.25;5033576;28;20451;-69
2024/03/05 07:20:34;;;;;;;;;;;;;;;-144.99;96.68;52509.25;5031867;28;19929;-70
2024/03/05 07:23:01;;;;;;;;;;;;;;;-144.99;96.61;52488.84;5031724;28;19960;-70
2024/03/05 07:25:27;;;;;;;;;;;;;;;-144.99;96.73;52501.09;5039487;28;19973;-69
2024/03/05 07:27:56;;;;;;;;;;;;;;;-144.99;96.39;52505.16;5036488;28;19960;-70
2024/03/05 07:30:22;;;;;;;;;;;;;;;-144.99;96.63;52484.78;5037592;28;19979;-69
2024/03/05 07:32:49;;;;;;;;;;;;;;;-144.99;96.36;52488.84;5033615;28;20006;-69
2024/03/05 07:35:17;;;;;;;;;;;;;;;-144.99;95.96;52444.03;5033470;28;20366;-69
2024/03/05 07:37:45;;;;;;;;;;;;;;;-144.99;95.68;52456.25;5032618;28;20311;-71
2024/03/05 07:40:16;;;;;;;;;;;;;;;-144.99;95.67;52468.47;5028136;28;20016;-69
2024/03/05 07:42:47;;;;;;;;;;;;;;;-144.99;95.11;52478.66;5029394;28;20427;-69
2024/03/05 07:45:15;;;;;;;;;;;;;;;-144.99;94.97;52472.56;5032056;28;19979;-69
2024/03/05 07:47:42;;;;;;;;;;;;;;;-144.99;94.78;52497.00;5033346;28;20012;-68
2024/03/05 07:50:11;;;;;;;;;;;;;;;-144.99;94.30;52456.25;5024379;28;20014;-69
2024/03/05 07:52:38;;;;;;;;;;;;;;;-144.99;93.99;52472.56;5030923;28;20461;-69
2024/03/05 07:55:05;;;;;;;;;;;;;;;-144.99;94.20;52533.69;5034362;28;20020;-69
2024/03/05 07:57:31;;;;;;;;;;;;;;;-144.99;93.86;52484.78;5032030;28;20302;-70
2024/03/05 07:59:58;;;;;;;;;;;;;;;-144.99;93.55;52509.25;5037203;28;19933;-67
2024/03/05 08:02:26;;;;;;;;;;;;;;;-144.99;93.24;52492.94;4687090;28;10000289;-69
2024/03/05 08:04:52;;;;;;;;;;;;;;;-144.99;93.17;52464.41;5032937;28;19980;-69
2024/03/05 08:07:19;;;;;;;;;;;;;;;-144.99;93.54;52492.94;5036911;28;19939;-69
2024/03/05 08:09:45;;;;;;;;;;;;;;;-144.99;93.57;52466.44;5037707;28;20553;-68
2024/03/05 08:12:12;;;;;;;;;;;;;;;-144.99;93.89;52501.09;5023077;28;19987;-68
2024/03/05 08:14:38;;;;;;;;;;;;;;;-144.99;93.89;52472.56;5027435;28;19994;-68
2024/03/05 08:17:08;;;;;;;;;;;;;;;-144.99;92.87;52488.84;5031888;28;19976;-69
2024/03/05 08:19:36;;;;;;;;;;;;;;;-144.99;92.87;52505.16;5033949;28;19929;-68
2024/03/05 08:22:05;;;;;;;;;;;;;;;-144.99;92.76;52484.78;5029277;28;19928;-68
2024/03/05 08:24:31;;;;;;;;;;;;;;;-144.99;92.23;52492.94;5037783;28;19936;-69
2024/03/05 08:26:58;;;;;;;;;;;;;;;-144.99;92.08;52509.25;5029712;28;20668;-68
2024/03/05 08:29:26;;;;;;;;;;;;;;;-144.99;91.28;52558.16;5041516;28;19928;-68
2024/03/05 08:31:52;;;;;;;;;;;;;;;-144.99;90.56;52537.78;5030006;28;19929;-68
2024/03/05 08:34:18;;;;;;;;;;;;;;;-144.99;90.75;52525.56;5027465;28;20028;-69
2024/03/05 08:36:46;;;;;;;;;;;;;;;-144.99;90.70;52476.63;5027969;28;20446;-69
2024/03/05 08:39:18;;;;;;;;;;;;;;;-144.99;89.04;52511.28;5027118;28;20017;-69
2024/03/05 08:41:46;;;;;;;;;;;;;;;-144.99;89.06;52478.66;5033830;28;19929;-69
2024/03/05 08:44:13;;;;;;;;;;;;;;;-144.99;88.55;52476.63;5033218;28;20025;-69
2024/03/05 08:46:40;;;;;;;;;;;;;;;-144.99;88.18;52488.84;5028981;28;19952;-68
2024/03/05 08:49:06;;;;;;;;;;;;;;;-144.99;87.88;52497.00;5026952;28;20687;-68
2024/03/05 08:51:34;;;;;;;;;;;;;;;-144.99;86.92;52476.63;5028355;28;19964;-68
2024/03/05 08:54:02;;;;;;;;;;;;;;;-144.99;86.29;52482.75;5037259;28;19936;-69
2024/03/05 08:56:28;;;;;;;;;;;;;;;-144.99;85.60;52431.78;5034398;28;19979;-68
2024/03/05 08:58:55;;;;;;;;;;;;;;;-144.99;84.43;52472.56;5027344;28;19968;-69
2024/03/05 09:01:21;;;;;;;;;;;;;;;-144.99;81.76;52456.25;5029270;28;19961;-69
2024/03/05 09:03:47;;;;;;;;;;;;;;;-144.99;81.46;52466.44;5029508;28;19965;-69
2024/03/05 09:06:16;;;;;;;;;;;;;;;-144.99;79.93;52427.72;5038335;28;19987;-69
2024/03/05 09:08:42;;;;;;;;;;;;;;;-144.99;78.61;52435.88;5012458;28;19926;-69
2024/03/05 09:11:11;;;;;;;;;;;;;;;-144.99;76.80;52427.72;5026294;28;19929;-69
2024/03/05 09:13:40;;;;;;;;;;;;;;;-144.99;76.79;52407.31;5024970;28;20307;-70
2024/03/05 09:16:07;;;;;;;;;;;;;;;-144.99;75.48;52452.16;5035733;28;20014;-69
2024/03/05 09:18:34;;;;;;;;;;;;;;;-144.99;75.07;52439.94;5033886;28;20395;-69
2024/03/05 09:21:00;;;;;;;;;;;;;;;-144.99;73.40;52439.94;5028134;28;19933;-69
2024/03/05 09:23:27;;;;;;;;;;;;;;;-144.99;73.22;52441.97;5033043;28;19963;-69
2024/03/05 09:25:53;;;;;;;;;;;;;;;-144.99;72.97;52470.50;5037038;28;20578;-70
2024/03/05 09:28:21;;;;;;;;;;;;;;;-144.99;73.00;52456.25;5032678;28;19956;-69
2024/03/05 09:30:48;;;;;;;;;;;;;;;-144.99;73.10;52448.09;5030115;28;20019;-69
2024/03/05 09:33:15;;;;;;;;;;;;;;;-144.99;72.77;52435.88;5022151;28;19937;-69
2024/03/05 09:35:42;;;;;;;;;;;;;;;-144.99;73.19;52433.81;5033576;28;19972;-69
2024/03/05 09:38:08;;;;;;;;;;;;;;;-144.99;73.87;52427.72;5031854;28;20023;-69
2024/03/05 09:40:36;;;;;;;;;;;;;;;-144.99;73.34;52413.44;5027014;28;19936;-69
2024/03/05 09:43:03;;;;;;;;;;;;;;;-144.99;72.80;52419.56;5028134;28;19929;-69
2024/03/05 09:45:36;;;;;;;;;;;;;;;-144.99;71.38;52423.63;5026788;28;19983;-68
2024/03/05 09:48:03;;;;;;;;;;;;;;;-144.99;70.00;52444.03;5037934;28;19959;-69
2024/03/05 09:50:31;;;;;;;;;;;;;;;-144.99;70.43;52386.94;5034937;28;19929;-70
2024/03/05 09:52:59;;;;;;;;;;;;;;;-144.99;69.98;52399.19;5028527;28;20366;-70
2024/03/05 09:55:26;;;;;;;;;;;;;;;-144.99;68.38;52454.22;5028241;28;20029;-69
2024/03/05 09:57:54;;;;;;;;;;;;;;;-144.99;67.73;52407.31;5028519;28;19929;-69
2024/03/05 10:00:21;;;;;;;;;;;;;;;-144.99;68.36;52441.97;5027385;28;19929;-69
2024/03/05 10:02:50;;;;;;;;;;;;;;;-144.99;68.01;52395.09;5035207;28;19990;-69
2024/03/05 10:05:18;;;;;;;;;;;;;;;-144.99;66.86;52419.56;5027543;28;20032;-70
2024/03/05 10:07:44;;;;;;;;;;;;;;;-144.99;67.01;52435.88;5028142;28;20264;-70
2024/03/05 10:10:11;;;;;;;;;;;;;;;-144.99;66.67;52391.03;5029535;28;19929;-70
2024/03/05 10:12:39;;;;;;;;;;;;;;;-144.99;66.38;52368.59;5025191;28;19925;-70
2024/03/05 10:15:17;;;;;;;;;;;;;;;-144.99;66.00;52378.78;5030881;28;19970;-70
2024/03/05 10:17:44;;;;;;;;;;;;;;;-144.99;64.55;52415.47;5035709;28;20326;-70
2024/03/05 10:20:24;;;;;;;;;;;;;;;-144.99;64.84;52362.50;5033333;28;20284;-70
2024/03/05 10:22:51;;;;;;;;;;;;;;;-144.99;64.59;52395.09;5022908;28;20466;-70
2024/03/05 10:25:17;;;;;;;;;;;;;;;-144.99;63.74;52342.09;5028679;28;19928;-69
2024/03/05 10:27:47;;;;;;;;;;;;;;;-144.99;63.05;52325.81;5032978;28;19940;-70
2024/03/05 10:30:24;;;;;;;;;;;;;;;-144.99;63.37;52358.41;5030526;28;19933;-69
2024/03/05 10:32:53;;;;;;;;;;;;;;;-144.99;63.39;52342.09;5030398;28;19936;-70
2024/03/05 10:35:21;;;;;;;;;;;;;;;-144.99;62.59;52329.88;5026817;28;19928;-70
2024/03/05 10:37:55;;;;;;;;;;;;;;;-144.99;62.61;52372.69;5029325;28;20007;-69
2024/03/05 10:40:22;;;;;;;;;;;;;;;-144.99;62.74;52329.88;5025464;28;20359;-69
2024/03/05 10:42:49;;;;;;;;;;;;;;;-144.99;62.32;52329.88;5037432;28;20286;-70
2024/03/05 10:45:16;;;;;;;;;;;;;;;-144.99;60.91;52305.41;5035619;28;20602;-70
2024/03/05 10:47:43;;;;;;;;;;;;;;;-144.99;60.27;52289.13;5032221;28;20022;-70
2024/03/05 10:50:13;;;;;;;;;;;;;;;-144.99;58.64;52266.69;5040976;28;20011;-70
2024/03/05 10:52:41;;;;;;;;;;;;;;;-144.99;58.93;52268.72;5035575;28;20032;-70
2024/03/05 10:55:11;;;;;;;;;;;;;;;-144.99;57.69;52246.31;5044810;28;20016;-70
2024/03/05 10:58:08;;;;;;;;;;;;;;;-144.99;57.71;52240.19;5047103;28;19925;-70
2024/03/05 11:00:24;;;;;;;;;;;;;;;-144.99;58.28;52278.91;5037235;28;19981;-69
2024/03/05 11:02:51;;;;;;;;;;;;;;;-144.99;58.36;52264.66;5039724;28;19925;-69
2024/03/05 11:05:18;;;;;;;;;;;;;;;-144.99;59.49;52219.81;5048202;28;19925;-70
2024/03/05 11:07:47;;;;;;;;;;;;;;;-144.99;58.94;52211.66;5030764;28;20024;-70
2024/03/05 11:10:13;;;;;;;;;;;;;;;-144.99;58.80;52366.56;5031211;28;19932;-69
2024/03/05 11:12:42;;;;;;;;;;;;;;;-144.99;59.64;52287.06;5029900;28;19980;-71
2024/03/05 11:15:12;;;;;;;;;;;;;;;-144.99;59.35;52382.88;5015252;28;19964;-70
2024/03/05 11:17:38;;;;;;;;;;;;;;;-144.99;59.93;52376.75;5030206;28;19925;-70
2024/03/05 11:20:11;;;;;;;;;;;;;;;-144.99;59.75;52256.50;5041913;28;19980;-69
2024/03/05 11:22:43;;;;;;;;;;;;;;;-144.99;58.93;52268.72;5035603;28;19929;-69
2024/03/05 11:25:29;;;;;;;;;;;;;;;-144.99;58.62;52285.03;5044137;28;20019;-70
2024/03/05 11:27:57;;;;;;;;;;;;;;;-144.99;58.36;52276.88;5029275;28;19929;-70
2024/03/05 11:30:24;;;;;;;;;;;;;;;-144.99;58.52;52223.88;5031910;28;20017;-69
2024/03/05 11:32:52;;;;;;;;;;;;;;;-144.99;58.94;52297.25;5035041;28;19925;-69
2024/03/05 11:35:19;;;;;;;;;;;;;;;-144.99;59.30;52258.53;5031819;28;20071;-69
2024/03/05 11:37:47;;;;;;;;;;;;;;;-144.99;57.93;52240.19;5025763;28;20007;-69
2024/03/05 11:40:15;;;;;;;;;;;;;;;-144.99;56.07;52195.34;5032900;28;19952;-70
2024/03/05 11:42:45;;;;;;;;;;;;;;;-144.99;54.94;52215.75;5035824;28;19972;-70
2024/03/05 11:45:14;;;;;;;;;;;;;;;-144.99;53.87;52207.59;5037835;28;19980;-70
2024/03/05 11:47:42;;;;;;;;;;;;;;;-144.99;54.00;52179.06;5037359;28;20015;-70
2024/03/05 11:50:08;;;;;;;;;;;;;;;-144.99;53.53;52260.56;5035159;28;19933;-70
2024/03/05 11:52:36;;;;;;;;;;;;;;;-144.99;54.77;52219.81;5029323;28;19956;-70
2024/03/05 11:55:05;;;;;;;;;;;;;;;-144.99;55.51;52252.44;5042557;28;20007;-69
2024/03/05 11:57:34;;;;;;;;;;;;;;;-144.99;54.82;52179.06;5031070;28;19940;-69
2024/03/05 12:00:00;;;;;;;;;;;;;;;-144.99;54.19;52201.47;5037354;28;19931;-69
2024/03/05 12:02:27;;;;;;;;;;;;;;;-144.99;53.30;52179.06;5031601;28;21071;-69
2024/03/05 12:04:54;;;;;;;;;;;;;;;-144.99;53.46;52350.25;5026465;28;20019;-70
2024/03/05 12:07:20;;;;;;;;;;;;;;;-144.99;54.78;52391.03;5029921;28;19986;-69
2024/03/05 12:09:47;;;;;;;;;;;;;;;-144.99;57.07;52303.38;5028599;28;19968;-69
2024/03/05 12:12:16;;;;;;;;;;;;;;;-144.99;58.00;52446.06;5040962;28;19984;-69
2024/03/05 12:14:54;;;;;;;;;;;;;;;-144.99;58.56;52360.44;5042320;28;19982;-69
2024/03/05 12:17:20;;;;;;;;;;;;;;;-144.99;57.34;52260.56;5022154;28;20022;-70
2024/03/05 12:19:56;;;;;;;;;;;;;;;-144.99;55.87;52244.28;5027200;28;19932;-69
2024/03/05 12:22:22;;;;;;;;;;;;;;;-144.99;54.93;52260.56;5024994;28;19929;-70
2024/03/05 12:24:49;;;;;;;;;;;;;;;-144.99;54.46;52252.44;5032919;28;19948;-70
2024/03/05 12:27:16;;;;;;;;;;;;;;;-144.99;53.89;52203.50;5033416;28;20027;-69
2024/03/05 12:29:42;;;;;;;;;;;;;;;-144.99;53.11;52236.13;5034757;28;19925;-70
2024/03/05 12:32:12;;;;;;;;;;;;;;;-144.99;52.68;52191.28;5035039;28;19929;-70